^^
Station Historical Data
Daily Summary for Nil La, TWC- Units:  Metric    English   Both
« Previous Day
Next Day »
Daily Weekly Monthly Yearly Custom
  High: Low: Average:
Temperature: -17.8 °C 7 °C 14.4 °C
Dew Point: -17.8 °C 2.7 °C 3.8 °C
Humidity: Humidity% 27% 53%
Wind Speed: 0km/h 0km/h 2.1km/h
Wind Gust: 0km/h - -
Wind- - SE
Pressure: 0 hPa 1017.5 hPa -
Precipitation: 0 mm    
Historical Graphs
 
 
Tabular Data for Nil La, TWC-
Time Temperature Dew Point Pressure Wind Wind Speed Wind Gust Humidity Rainfall Rate (Hourly) solar Conditions
-17.8 °C -17.8 °C 0 hPa Calm     Humidity% 0 mm SolarRadiationWatts/m^2 W/m2 Conditions
00:02 11 °C 3.3 °C 1020.5 hPa Calm   1.6 km/h 59% 0 mm 0.0 W/m2
00:06 10.8 °C 3.3 °C 1020.5 hPa Calm     60% 0 mm 0.0 W/m2
00:12 10.6 °C 3.4 °C 1020.9 hPa Calm     61% 0 mm 0.0 W/m2
00:17 10.3 °C 3.1 °C 1020.5 hPa Calm   1.6 km/h 61% 0 mm 0.0 W/m2
00:22 10.2 °C 3.2 °C 1020.5 hPa Calm     62% 0 mm 0.0 W/m2
00:27 10.1 °C 3.1 °C 1020.5 hPa Calm   3.2 km/h 62% 0 mm 0.0 W/m2
00:32 9.9 °C 3 °C 1020.5 hPa Calm     62% 0 mm 0.0 W/m2
00:37 9.9 °C 3.2 °C 1020.5 hPa Calm     63% 0 mm 0.0 W/m2
00:42 9.8 °C 3.1 °C 1020.5 hPa Calm   1.6 km/h 63% 0 mm 0.0 W/m2
00:47 9.7 °C 2.8 °C 1020.9 hPa Calm   1.6 km/h 62% 0 mm 0.0 W/m2
00:52 9.6 °C 2.7 °C 1020.9 hPa Calm     62% 0 mm 0.0 W/m2
00:58 9.6 °C 3.3 °C 1020.9 hPa Calm     65% 0 mm 0.0 W/m2
01:04 9.5 °C 3 °C 1020.9 hPa Calm   1.6 km/h 64% 0 mm 0.0 W/m2
01:09 9.4 °C 2.9 °C 1020.9 hPa Calm     64% 0 mm 0.0 W/m2
01:14 9.4 °C 3.2 °C 1020.9 hPa Calm     65% 0 mm 0.0 W/m2
01:19 9.3 °C 3.5 °C 1020.9 hPa Calm   3.2 km/h 67% 0 mm 0.0 W/m2
01:24 9.2 °C 3.4 °C 1020.5 hPa Calm     67% 0 mm 0.0 W/m2
01:29 9.1 °C 3.1 °C 1020.5 hPa Calm     66% 0 mm 0.0 W/m2
01:34 9.1 °C 3.1 °C 1020.5 hPa Calm     66% 0 mm 0.0 W/m2
01:39 8.9 °C 3.1 °C 1020.5 hPa SE 1.4 km/h 3.2 km/h 67% 0 mm 0.0 W/m2
01:44 8.9 °C 3.1 °C 1020.5 hPa SSE 4.7 km/h 6.4 km/h 67% 0 mm 0.0 W/m2
01:49 8.8 °C 2.8 °C 1020.5 hPa Calm   3.2 km/h 66% 0 mm 0.0 W/m2
01:54 8.8 °C 3 °C 1020.5 hPa Calm     67% 0 mm 0.0 W/m2
01:59 8.8 °C 3.2 °C 1020.5 hPa SSE 4.7 km/h 4.8 km/h 68% 0 mm 0.0 W/m2
02:05 8.8 °C 3.2 °C 1020.5 hPa Calm     68% 0 mm 0.0 W/m2
02:10 8.8 °C 3.2 °C 1020.5 hPa Calm     68% 0 mm 0.0 W/m2
02:15 8.8 °C 3.2 °C 1020.5 hPa Calm     68% 0 mm 0.0 W/m2
02:20 8.7 °C 3.1 °C 1020.9 hPa Calm   3.2 km/h 68% 0 mm 0.0 W/m2
02:25 8.7 °C 3.1 °C 1020.5 hPa South 1.4 km/h 4.8 km/h 68% 0 mm 0.0 W/m2
02:30 8.7 °C 3.1 °C 1020.5 hPa Calm   1.6 km/h 68% 0 mm 0.0 W/m2
02:35 8.6 °C 3 °C 1020.5 hPa Calm     68% 0 mm 0.0 W/m2
02:40 8.6 °C 3.2 °C 1020.5 hPa Calm   3.2 km/h 69% 0 mm 0.0 W/m2
02:46 8.6 °C 3.2 °C 1020.5 hPa Calm     69% 0 mm 0.0 W/m2
02:51 8.6 °C 3.2 °C 1020.5 hPa Calm     69% 0 mm 0.0 W/m2
02:56 8.5 °C 3.3 °C 1020.5 hPa Calm   1.6 km/h 70% 0 mm 0.0 W/m2
03:02 8.4 °C 3.2 °C 1020.5 hPa Calm   3.2 km/h 70% 0 mm 0.0 W/m2
03:07 8.3 °C 3.1 °C 1020.5 hPa Calm     70% 0 mm 0.0 W/m2
03:12 8.3 °C 3.1 °C 1020.5 hPa Calm   1.6 km/h 70% 0 mm 0.0 W/m2
03:17 8.2 °C 3.3 °C 1020.5 hPa Calm   1.6 km/h 71% 0 mm 0.0 W/m2
03:22 8.2 °C 3.3 °C 1020.5 hPa Calm     71% 0 mm 0.0 W/m2
03:27 8.1 °C 3.2 °C 1020.5 hPa Calm   1.6 km/h 71% 0 mm 0.0 W/m2
03:32 8.1 °C 3.2 °C 1020.5 hPa Calm   1.6 km/h 71% 0 mm 0.0 W/m2
03:37 8.1 °C 3.2 °C 1020.5 hPa South 1.4 km/h 4.8 km/h 71% 0 mm 0.0 W/m2
03:43 8.1 °C 3.2 °C 1020.5 hPa Calm     71% 0 mm 0.0 W/m2
03:48 8.1 °C 3.2 °C 1020.5 hPa Calm     71% 0 mm 0.0 W/m2
03:53 8 °C 3.3 °C 1020.5 hPa Calm     72% 0 mm 0.0 W/m2
03:59 7.9 °C 3.2 °C 1020.5 hPa Calm   1.6 km/h 72% 0 mm 0.0 W/m2
04:00 7.9 °C 3.2 °C 1020.5 hPa Calm   1.6 km/h 72% 0 mm 0.0 W/m2
04:05 7.8 °C 3.1 °C 1020.5 hPa Calm     72% 0 mm 0.0 W/m2
04:10 7.8 °C 3.1 °C 1020.5 hPa Calm   1.6 km/h 72% 0 mm 0.0 W/m2
04:16 7.7 °C 3.2 °C 1020.2 hPa Calm     73% 0 mm 0.0 W/m2
04:21 7.7 °C 3.2 °C 1020.2 hPa Calm   1.6 km/h 73% 0 mm 0.0 W/m2
04:26 7.7 °C 3.2 °C 1020.2 hPa Calm     73% 0 mm 0.0 W/m2
04:32 7.7 °C 3.2 °C 1020.2 hPa Calm     73% 0 mm 0.0 W/m2
04:37 7.6 °C 3.1 °C 1020.2 hPa Calm     73% 0 mm 0.0 W/m2
04:42 7.6 °C 3.1 °C 1020.2 hPa Calm     73% 0 mm 0.0 W/m2
04:47 7.6 °C 3.3 °C 1020.2 hPa Calm     74% 0 mm 0.0 W/m2
04:52 7.5 °C 3.2 °C 1020.2 hPa Calm   1.6 km/h 74% 0 mm 0.0 W/m2
04:57 7.4 °C 2.9 °C 1020.2 hPa Calm     73% 0 mm 0.0 W/m2
05:02 7.4 °C 3.1 °C 1020.2 hPa Calm     74% 0 mm 0.0 W/m2
05:07 7.4 °C 3.1 °C 1020.2 hPa Calm     74% 0 mm 0.0 W/m2
05:12 7.3 °C 3 °C 1020.5 hPa Calm     74% 0 mm 0.0 W/m2
05:17 7.3 °C 3.2 °C 1020.2 hPa Calm     75% 0 mm 0.0 W/m2
05:22 7.2 °C 3.3 °C 1020.2 hPa Calm     76% 0 mm 0.0 W/m2
05:24 7.2 °C 3.3 °C 1020.2 hPa Calm     76% 0 mm 0.0 W/m2
05:30 7.2 °C 3.3 °C 1020.2 hPa Calm   1.6 km/h 76% 0 mm 0.0 W/m2
05:36 7.1 °C 3.2 °C 1020.2 hPa Calm     76% 0 mm 0.0 W/m2
05:41 7.1 °C 3.2 °C 1020.2 hPa Calm     76% 0 mm 0.0 W/m2
05:46 7 °C 3.1 °C 1020.5 hPa Calm   1.6 km/h 76% 0 mm 0.0 W/m2
05:51 7 °C 3.1 °C 1020.5 hPa Calm   1.6 km/h 76% 0 mm 0.0 W/m2
05:56 7.1 °C 3.2 °C 1020.5 hPa Calm     76% 0 mm 0.0 W/m2
06:01 7.1 °C 3.2 °C 1020.5 hPa Calm     76% 0 mm 0.0 W/m2
06:06 7.1 °C 3.2 °C 1020.5 hPa Calm     76% 0 mm 0.0 W/m2
06:11 7.2 °C 3.3 °C 1020.5 hPa Calm     76% 0 mm 0.0 W/m2
06:16 7.2 °C 3.3 °C 1020.5 hPa Calm     76% 0 mm 0.0 W/m2
06:21 7.2 °C 3.3 °C 1020.5 hPa Calm     76% 0 mm 0.0 W/m2
06:27 7.2 °C 3.4 °C 1020.9 hPa Calm     77% 0 mm 0.0 W/m2
06:32 7.2 °C 3.4 °C 1020.9 hPa Calm   1.6 km/h 77% 0 mm 0.0 W/m2
06:37 7.2 °C 3.3 °C 1020.9 hPa Calm   1.6 km/h 76% 0 mm 0.0 W/m2
06:43 7.2 °C 3.3 °C 1020.9 hPa South 1.4 km/h 3.2 km/h 76% 0 mm 0.0 W/m2
06:48 7.2 °C 3.1 °C 1020.9 hPa SE 1.4 km/h 3.2 km/h 75% 0 mm 0.0 W/m2
06:53 7.4 °C 3.1 °C 1020.9 hPa Calm   1.6 km/h 74% 0 mm 0.0 W/m2
06:59 7.6 °C 3.3 °C 1021.2 hPa Calm   1.6 km/h 74% 0 mm 0.0 W/m2
07:04 7.7 °C 3.5 °C 1020.9 hPa Calm     75% 0 mm 0.0 W/m2
07:09 7.7 °C 3.4 °C 1021.2 hPa Calm     74% 0 mm 0.0 W/m2
07:14 7.8 °C 3.5 °C 1021.2 hPa Calm   1.6 km/h 74% 0 mm 0.0 W/m2
07:19 7.9 °C 3.6 °C 1021.2 hPa Calm     74% 0 mm 0.0 W/m2
07:24 7.9 °C 3.6 °C 1021.2 hPa Calm     74% 0 mm 5.0 W/m2
07:29 7.9 °C 3.6 °C 1021.2 hPa Calm     74% 0 mm 7.0 W/m2
07:34 7.9 °C 3.4 °C 1021.2 hPa Calm     73% 0 mm 9.0 W/m2
07:40 7.9 °C 3.6 °C 1021.2 hPa Calm     74% 0 mm 11.0 W/m2
07:45 7.9 °C 3.6 °C 1021.6 hPa Calm     74% 0 mm 12.0 W/m2
07:50 7.8 °C 3.6 °C 1021.6 hPa Calm   1.6 km/h 75% 0 mm 14.0 W/m2
07:55 7.8 °C 3.6 °C 1021.6 hPa Calm     75% 0 mm 14.0 W/m2
08:00 7.9 °C 3.7 °C 1021.6 hPa Calm     75% 0 mm 16.0 W/m2
08:05 7.9 °C 3.7 °C 1021.6 hPa Calm     75% 0 mm 18.0 W/m2
08:10 8.1 °C 3.9 °C 1021.6 hPa Calm   1.6 km/h 75% 0 mm 18.0 W/m2
08:15 8.2 °C 3.8 °C 1021.6 hPa SE 1.4 km/h 8 km/h 74% 0 mm 19.0 W/m2
08:20 8.6 °C 3.4 °C 1021.6 hPa East 1.4 km/h 6.4 km/h 70% 0 mm 21.0 W/m2
08:25 9.1 °C 3.5 °C 1021.6 hPa Calm   4.8 km/h 68% 0 mm 21.0 W/m2
08:31 10.1 °C 3.6 °C 1021.9 hPa NE 4.7 km/h 9.7 km/h 64% 0 mm 23.0 W/m2
08:36 10.8 °C 3.6 °C 1021.9 hPa ENE 6.4 km/h 9.7 km/h 61% 0 mm 25.0 W/m2
08:41 11.7 °C 3.2 °C 1021.9 hPa East 7.9 km/h 11.3 km/h 56% 0 mm 25.0 W/m2
08:46 12.7 °C 3.4 °C 1021.9 hPa ESE 7.9 km/h 11.3 km/h 53% 0 mm 26.0 W/m2
08:51 13.3 °C 3.4 °C 1021.9 hPa NE 16.3 km/h 16.3 km/h 51% 0 mm 26.0 W/m2
08:57 13.9 °C 3.1 °C 1021.9 hPa NE 11.1 km/h 11.3 km/h 48% 0 mm 26.0 W/m2
09:02 14.4 °C 3.2 °C 1021.9 hPa ENE 13 km/h 14.5 km/h 47% 0 mm 28.0 W/m2
09:07 15.1 °C 3.3 °C 1021.9 hPa NE 4.7 km/h 20.9 km/h 45% 0 mm 42.0 W/m2
09:12 15.7 °C 3.5 °C 1021.9 hPa ESE 4.7 km/h 9.7 km/h 44% 0 mm 353.0 W/m2
09:17 16.3 °C 3.4 °C 1021.9 hPa ENE 1.4 km/h 16.1 km/h 42% 0 mm 371.0 W/m2
09:22 16.7 °C 3.4 °C 1021.9 hPa ENE 4.7 km/h 17.7 km/h 41% 0 mm 385.0 W/m2
09:27 17.1 °C 3.4 °C 1021.9 hPa SSE 9.7 km/h 16.1 km/h 40% 0 mm 403.0 W/m2
09:32 17.3 °C 3.6 °C 1021.9 hPa East 6.4 km/h 12.9 km/h 40% 0 mm 418.0 W/m2
09:37 17.7 °C 3.9 °C 1021.9 hPa East 16.3 km/h 16.3 km/h 40% 0 mm 434.0 W/m2
09:42 17.9 °C 3.4 °C 1021.9 hPa East 4.7 km/h 20.9 km/h 38% 0 mm 448.0 W/m2
09:47 18.2 °C 3.6 °C 1021.9 hPa ENE 7.9 km/h 16.1 km/h 38% 0 mm 462.0 W/m2
09:53 18.6 °C 3.6 °C 1021.9 hPa ENE 9.7 km/h 12.9 km/h 37% 0 mm 478.0 W/m2
09:58 18.9 °C 3.9 °C 1021.9 hPa Calm   24.1 km/h 37% 0 mm 492.0 W/m2
10:03 19.2 °C 4.2 °C 1021.9 hPa NNE 4.7 km/h 14.5 km/h 37% 0 mm 504.0 W/m2
10:08 19.5 °C 4 °C 1021.6 hPa NE 7.9 km/h 12.9 km/h 36% 0 mm 519.0 W/m2
10:13 19.7 °C 4.6 °C 1021.6 hPa NE 4.7 km/h 11.3 km/h 37% 0 mm 529.0 W/m2
10:18 19.9 °C 4.4 °C 1021.6 hPa NE 1.4 km/h 9.7 km/h 36% 0 mm 545.0 W/m2
10:23 20.2 °C 4.2 °C 1021.6 hPa NE 3.2 km/h 16.1 km/h 35% 0 mm 557.0 W/m2
10:28 20.4 °C 4.4 °C 1021.6 hPa WNW 4.7 km/h 14.5 km/h 35% 0 mm 570.0 W/m2
10:33 20.5 °C 4.5 °C 1021.6 hPa ENE 4.7 km/h 9.7 km/h 35% 0 mm 582.0 W/m2
10:39 20.7 °C 4.7 °C 1021.6 hPa Calm   11.3 km/h 35% 0 mm 592.0 W/m2
10:45 20.9 °C 4.9 °C 1021.6 hPa ENE 3.2 km/h 12.9 km/h 35% 0 mm 605.0 W/m2
10:50 21.1 °C 5 °C 1021.6 hPa ENE 6.4 km/h 8 km/h 35% 0 mm 613.0 W/m2
10:55 21.3 °C 5.2 °C 1021.6 hPa NNE 11.1 km/h 14.5 km/h 35% 0 mm 624.0 W/m2
11:00 21.4 °C 4.9 °C 1021.2 hPa East 3.2 km/h 12.9 km/h 34% 0 mm 633.0 W/m2
11:05 21.6 °C 5.1 °C 1021.2 hPa Calm   11.3 km/h 34% 0 mm 643.0 W/m2
11:10 21.6 °C 5.1 °C 1021.2 hPa NE 6.4 km/h 22.5 km/h 34% 0 mm 652.0 W/m2
11:16 21.7 °C 5.6 °C 1021.2 hPa ENE 3.2 km/h 17.7 km/h 35% 0 mm 661.0 W/m2
11:21 21.7 °C 5.6 °C 1020.9 hPa North 3.2 km/h 17.7 km/h 35% 0 mm 668.0 W/m2
11:26 21.8 °C 5.7 °C 1020.9 hPa ESE 9.7 km/h 11.3 km/h 35% 0 mm 673.0 W/m2
11:31 21.9 °C 5.7 °C 1020.5 hPa NNE 4.7 km/h 8 km/h 35% 0 mm 680.0 W/m2
11:37 22.2 °C 5.6 °C 1020.5 hPa NE 4.7 km/h 12.9 km/h 34% 0 mm 687.0 W/m2
11:42 22.4 °C 6.2 °C 1020.5 hPa Calm   9.7 km/h 35% 0 mm 693.0 W/m2
11:48 22.7 °C 6 °C 1020.5 hPa East 6.4 km/h 14.5 km/h 34% 0 mm 700.0 W/m2
11:53 22.7 °C 5.6 °C 1020.5 hPa East 7.9 km/h 17.7 km/h 33% 0 mm 703.0 W/m2
11:59 22.7 °C 6 °C 1020.2 hPa East 11.1 km/h 14.5 km/h 34% 0 mm 714.0 W/m2
12:04 22.8 °C 6.1 °C 1020.2 hPa NE 6.4 km/h 9.7 km/h 34% 0 mm 722.0 W/m2
12:09 22.9 °C 6.2 °C 1020.2 hPa SE 7.9 km/h 16.1 km/h 34% 0 mm 729.0 W/m2
12:14 22.8 °C 6.1 °C 1019.9 hPa SSE 6.4 km/h 11.3 km/h 34% 0 mm 751.0 W/m2
12:19 22.9 °C 5.3 °C 1019.9 hPa North 4.7 km/h 16.1 km/h 32% 0 mm 148.0 W/m2
12:25 23.1 °C 5.5 °C 1019.9 hPa ENE 11.1 km/h 12.9 km/h 32% 0 mm 165.0 W/m2
12:30 22.8 °C 5.2 °C 1019.9 hPa SE 1.4 km/h 14.5 km/h 32% 0 mm 283.0 W/m2
12:36 22.4 °C 5.3 °C 1019.5 hPa SE 7.9 km/h 8 km/h 33% 0 mm 318.0 W/m2
12:42 22.3 °C 5.2 °C 1019.5 hPa ENE 6.4 km/h 11.3 km/h 33% 0 mm 239.0 W/m2
12:47 22.3 °C 5.2 °C 1019.5 hPa East 1.4 km/h 12.9 km/h 33% 0 mm 237.0 W/m2
12:53 22.4 °C 4.9 °C 1019.5 hPa SE 9.7 km/h 9.7 km/h 32% 0 mm 896.0 W/m2
12:58 22.6 °C 5.1 °C 1019.5 hPa ESE 4.7 km/h 12.9 km/h 32% 0 mm 250.0 W/m2
13:04 22.8 °C 4.8 °C 1019.2 hPa Calm   11.3 km/h 31% 0 mm 214.0 W/m2
13:09 22.8 °C 5.2 °C 1019.2 hPa SE 1.4 km/h 6.4 km/h 32% 0 mm 299.0 W/m2
13:15 22.8 °C 4.8 °C 1019.2 hPa SSW 4.7 km/h 6.4 km/h 31% 0 mm 529.0 W/m2
13:21 22.6 °C 5.1 °C 1019.2 hPa NE 1.4 km/h 9.7 km/h 32% 0 mm 230.0 W/m2
13:26 22.6 °C 5.1 °C 1018.8 hPa NE 4.7 km/h 11.3 km/h 32% 0 mm 206.0 W/m2
13:31 22.6 °C 5.1 °C 1018.8 hPa SE 1.4 km/h 9.7 km/h 32% 0 mm 239.0 W/m2
13:36 22.4 °C 4.9 °C 1018.8 hPa ENE 3.2 km/h 4.8 km/h 32% 0 mm 244.0 W/m2
13:41 22.4 °C 4.4 °C 1018.8 hPa NW 3.2 km/h 3.2 km/h 31% 0 mm 241.0 W/m2
13:46 22.3 °C 4.4 °C 1018.8 hPa Calm   1.6 km/h 31% 0 mm 304.0 W/m2
13:51 22.4 °C 4.9 °C 1018.8 hPa Calm   4.8 km/h 32% 0 mm 223.0 W/m2
13:56 22.6 °C 4.6 °C 1018.8 hPa Calm   3.2 km/h 31% 0 mm 838.0 W/m2
14:01 22.9 °C 4.4 °C 1018.5 hPa SE 1.4 km/h 1.6 km/h 30% 0 mm 445.0 W/m2
14:07 23.2 °C 4.7 °C 1018.5 hPa Calm   3.2 km/h 30% 0 mm 772.0 W/m2
14:12 23.5 °C 4.4 °C 1018.5 hPa Calm   9.7 km/h 29% 0 mm 758.0 W/m2
14:17 23.4 °C 4.8 °C 1018.2 hPa Calm   1.6 km/h 30% 0 mm 763.0 W/m2
14:22 23.6 °C 4.5 °C 1018.2 hPa NNW 4.7 km/h 8 km/h 29% 0 mm 766.0 W/m2
14:27 23.7 °C 4.6 °C 1018.2 hPa Calm   1.6 km/h 29% 0 mm 793.0 W/m2
14:32 23.8 °C 4.7 °C 1018.2 hPa Calm   9.7 km/h 29% 0 mm 770.0 W/m2
14:37 23.8 °C 4.7 °C 1018.2 hPa SW 4.7 km/h 8 km/h 29% 0 mm 306.0 W/m2
14:42 23.7 °C 4.6 °C 1018.2 hPa WSW 7.9 km/h 8 km/h 29% 0 mm 717.0 W/m2
14:47 23.6 °C 4.5 °C 1017.8 hPa SSW 1.4 km/h 8 km/h 29% 0 mm 717.0 W/m2
14:52 23.7 °C 5.1 °C 1017.8 hPa WSW 1.4 km/h 4.8 km/h 30% 0 mm 585.0 W/m2
14:57 23.9 °C 4.8 °C 1017.8 hPa NNW 1.4 km/h 4.8 km/h 29% 0 mm 679.0 W/m2
15:03 24.3 °C 5.1 °C 1017.8 hPa WSW 1.4 km/h 3.2 km/h 29% 0 mm 668.0 W/m2
15:08 24.6 °C 4.9 °C 1017.8 hPa NNW 1.4 km/h 4.8 km/h 28% 0 mm 680.0 W/m2
15:13 24.7 °C 5 °C 1017.8 hPa Calm   8 km/h 28% 0 mm 680.0 W/m2
15:18 24.7 °C 4.4 °C 1017.5 hPa Calm   1.6 km/h 27% 0 mm 675.0 W/m2
15:23 24.8 °C 4.5 °C 1017.5 hPa WSW 4.7 km/h 4.8 km/h 27% 0 mm 650.0 W/m2
15:29 24.6 °C 4.4 °C 1017.5 hPa Calm   3.2 km/h 27% 0 mm 575.0 W/m2
15:34 24.3 °C 4.1 °C 1017.5 hPa WSW 1.4 km/h 4.8 km/h 27% 0 mm 169.0 W/m2
15:39 23.8 °C 4.7 °C 1017.5 hPa Calm   6.4 km/h 29% 0 mm 171.0 W/m2
15:44 23.5 °C 3.9 °C 1017.5 hPa West 1.4 km/h 4.8 km/h 28% 0 mm 178.0 W/m2
15:50 23.3 °C 4.7 °C 1017.5 hPa West 4.7 km/h 8 km/h 30% 0 mm 394.0 W/m2
15:55 23.3 °C 4.3 °C 1017.5 hPa West 3.2 km/h 8 km/h 29% 0 mm 195.0 W/m2
16:00 23.2 °C 4.2 °C 1017.5 hPa SSW 4.7 km/h 8 km/h 29% 0 mm 538.0 W/m2
16:05 23.3 °C 4.3 °C 1017.5 hPa SSW 6.4 km/h 8 km/h 29% 0 mm 202.0 W/m2
16:10 23.2 °C 4.7 °C 1017.5 hPa West 1.4 km/h 4.8 km/h 30% 0 mm 183.0 W/m2
16:15 23.1 °C 4.1 °C 1017.5 hPa West 1.4 km/h 3.2 km/h 29% 0 mm 185.0 W/m2
16:20 23 °C 5 °C 1017.5 hPa Calm   3.2 km/h 31% 0 mm 156.0 W/m2
16:25 22.9 °C 4.4 °C 1017.5 hPa Calm   4.8 km/h 30% 0 mm 146.0 W/m2
16:30 22.8 °C 4.8 °C 1017.5 hPa SW 3.2 km/h 3.2 km/h 31% 0 mm 125.0 W/m2
16:35 22.7 °C 4.2 °C 1017.5 hPa Calm   1.6 km/h 30% 0 mm 109.0 W/m2
Olympia, Windhoek, Namibia
Compliments of Weather Underground - 2.75 mb